sensor_id;sensor_type;location;lat;lon;timestamp;temperature;humidity
14210;DHT22;7188;56.070;12.698;2022-11-20T00:01:16;-0.70;1.00
14210;DHT22;7188;56.070;12.698;2022-11-20T00:03:42;-0.80;1.00
14210;DHT22;7188;56.070;12.698;2022-11-20T00:06:10;-0.80;1.00
14210;DHT22;7188;56.070;12.698;2022-11-20T00:08:36;-0.80;1.00
14210;DHT22;7188;56.070;12.698;2022-11-20T00:11:15;-0.90;1.00
14210;DHT22;7188;56.070;12.698;2022-11-20T00:13:42;-0.90;1.00
14210;DHT22;7188;56.070;12.698;2022-11-20T00:16:10;-1.00;1.00
14210;DHT22;7188;56.070;12.698;2022-11-20T00:18:36;-1.00;1.00
14210;DHT22;7188;56.070;12.698;2022-11-20T00:21:03;-1.00;1.00
14210;DHT22;7188;56.070;12.698;2022-11-20T00:23:30;-1.00;1.00
14210;DHT22;7188;56.070;12.698;2022-11-20T00:25:56;-1.00;1.00
14210;DHT22;7188;56.070;12.698;2022-11-20T00:28:21;-1.00;1.00
14210;DHT22;7188;56.070;12.698;2022-11-20T00:30:47;-1.10;1.00
14210;DHT22;7188;56.070;12.698;2022-11-20T00:33:13;-1.00;1.00
14210;DHT22;7188;56.070;12.698;2022-11-20T00:35:38;-1.10;1.00
14210;DHT22;7188;56.070;12.698;2022-11-20T00:38:04;-1.10;1.00
14210;DHT22;7188;56.070;12.698;2022-11-20T00:40:29;-1.10;1.00
14210;DHT22;7188;56.070;12.698;2022-11-20T00:42:55;-1.10;1.00
14210;DHT22;7188;56.070;12.698;2022-11-20T00:45:21;-1.10;1.00
14210;DHT22;7188;56.070;12.698;2022-11-20T00:47:46;-1.20;1.00
14210;DHT22;7188;56.070;12.698;2022-11-20T00:50:12;-1.20;1.00
14210;DHT22;7188;56.070;12.698;2022-11-20T00:52:37;-1.20;1.00
14210;DHT22;7188;56.070;12.698;2022-11-20T00:55:03;-1.20;1.00
14210;DHT22;7188;56.070;12.698;2022-11-20T00:57:29;-1.20;1.00
14210;DHT22;7188;56.070;12.698;2022-11-20T00:59:54;-1.20;99.90
14210;DHT22;7188;56.070;12.698;2022-11-20T01:02:21;-1.30;99.90
14210;DHT22;7188;56.070;12.698;2022-11-20T01:04:47;-1.30;1.00
14210;DHT22;7188;56.070;12.698;2022-11-20T01:07:13;-1.40;1.00
14210;DHT22;7188;56.070;12.698;2022-11-20T01:09:39;-1.30;1.00
14210;DHT22;7188;56.070;12.698;2022-11-20T01:12:04;-1.40;1.00
14210;DHT22;7188;56.070;12.698;2022-11-20T01:14:30;-1.40;1.00
14210;DHT22;7188;56.070;12.698;2022-11-20T01:16:55;-1.40;1.00
14210;DHT22;7188;56.070;12.698;2022-11-20T01:19:22;-1.40;99.90
14210;DHT22;7188;56.070;12.698;2022-11-20T01:21:52;-1.40;99.90
14210;DHT22;7188;56.070;12.698;2022-11-20T01:24:20;-1.40;99.90
14210;DHT22;7188;56.070;12.698;2022-11-20T01:26:48;-1.50;1.00
14210;DHT22;7188;56.070;12.698;2022-11-20T01:29:20;-1.50;1.00
14210;DHT22;7188;56.070;12.698;2022-11-20T01:31:48;-1.50;1.00
14210;DHT22;7188;56.070;12.698;2022-11-20T01:34:17;-1.50;1.00
14210;DHT22;7188;56.070;12.698;2022-11-20T01:36:43;-1.50;1.00
14210;DHT22;7188;56.070;12.698;2022-11-20T01:39:14;-1.50;1.00
14210;DHT22;7188;56.070;12.698;2022-11-20T01:41:41;-1.60;1.00
14210;DHT22;7188;56.070;12.698;2022-11-20T01:44:48;-1.60;1.00
14210;DHT22;7188;56.070;12.698;2022-11-20T01:47:21;-1.70;1.00
14210;DHT22;7188;56.070;12.698;2022-11-20T01:49:59;-1.70;1.00
14210;DHT22;7188;56.070;12.698;2022-11-20T01:52:36;-1.70;1.00
14210;DHT22;7188;56.070;12.698;2022-11-20T01:55:15;-1.70;12.40
14210;DHT22;7188;56.070;12.698;2022-11-20T01:57:44;-1.70;1.00
14210;DHT22;7188;56.070;12.698;2022-11-20T02:00:13;-1.80;1.00
14210;DHT22;7188;56.070;12.698;2022-11-20T02:02:43;-1.80;1.00
14210;DHT22;7188;56.070;12.698;2022-11-20T02:07:52;-1.80;1.00
14210;DHT22;7188;56.070;12.698;2022-11-20T02:10:20;-1.80;99.90
14210;DHT22;7188;56.070;12.698;2022-11-20T02:12:46;-1.90;99.90
14210;DHT22;7188;56.070;12.698;2022-11-20T02:15:32;-1.90;99.90
14210;DHT22;7188;56.070;12.698;2022-11-20T02:17:58;-1.90;99.90
14210;DHT22;7188;56.070;12.698;2022-11-20T02:20:24;-1.90;99.90
14210;DHT22;7188;56.070;12.698;2022-11-20T02:23:12;-1.90;99.90
14210;DHT22;7188;56.070;12.698;2022-11-20T02:25:41;-1.90;99.90
14210;DHT22;7188;56.070;12.698;2022-11-20T02:28:08;-2.00;99.90
14210;DHT22;7188;56.070;12.698;2022-11-20T02:30:34;-2.00;99.90
14210;DHT22;7188;56.070;12.698;2022-11-20T02:33:00;-2.00;99.90
14210;DHT22;7188;56.070;12.698;2022-11-20T02:37:53;-2.00;99.90
14210;DHT22;7188;56.070;12.698;2022-11-20T02:40:35;-2.10;99.90
14210;DHT22;7188;56.070;12.698;2022-11-20T02:43:01;-2.00;99.90
14210;DHT22;7188;56.070;12.698;2022-11-20T02:45:26;-2.00;99.90
14210;DHT22;7188;56.070;12.698;2022-11-20T02:47:52;-2.10;99.90
14210;DHT22;7188;56.070;12.698;2022-11-20T02:50:18;-2.10;99.90
14210;DHT22;7188;56.070;12.698;2022-11-20T02:52:44;-2.10;99.90
14210;DHT22;7188;56.070;12.698;2022-11-20T02:55:09;-2.10;99.90
14210;DHT22;7188;56.070;12.698;2022-11-20T02:57:35;-2.20;1.00
14210;DHT22;7188;56.070;12.698;2022-11-20T03:00:02;-2.20;1.00
14210;DHT22;7188;56.070;12.698;2022-11-20T03:02:31;-2.20;1.00
14210;DHT22;7188;56.070;12.698;2022-11-20T03:04:57;-2.20;78.10
14210;DHT22;7188;56.070;12.698;2022-11-20T03:07:22;-2.20;99.90
14210;DHT22;7188;56.070;12.698;2022-11-20T03:09:48;-2.30;99.90
14210;DHT22;7188;56.070;12.698;2022-11-20T03:12:15;-2.30;99.90
14210;DHT22;7188;56.070;12.698;2022-11-20T03:15:03;-2.30;99.90
14210;DHT22;7188;56.070;12.698;2022-11-20T03:17:29;-2.30;1.00
14210;DHT22;7188;56.070;12.698;2022-11-20T03:19:56;-2.30;1.00
14210;DHT22;7188;56.070;12.698;2022-11-20T03:22:21;-2.30;1.00
14210;DHT22;7188;56.070;12.698;2022-11-20T03:24:47;-2.30;1.00
14210;DHT22;7188;56.070;12.698;2022-11-20T03:27:12;-2.30;99.90
14210;DHT22;7188;56.070;12.698;2022-11-20T03:29:38;-2.30;99.90
14210;DHT22;7188;56.070;12.698;2022-11-20T03:32:04;-2.30;99.90
14210;DHT22;7188;56.070;12.698;2022-11-20T03:34:30;-2.40;99.90
14210;DHT22;7188;56.070;12.698;2022-11-20T03:36:55;-2.40;99.90
14210;DHT22;7188;56.070;12.698;2022-11-20T03:39:21;-2.30;99.90
14210;DHT22;7188;56.070;12.698;2022-11-20T03:41:46;-2.30;99.90
14210;DHT22;7188;56.070;12.698;2022-11-20T03:44:12;-2.30;99.90
14210;DHT22;7188;56.070;12.698;2022-11-20T03:46:38;-2.40;1.00
14210;DHT22;7188;56.070;12.698;2022-11-20T03:49:04;-2.40;1.00
14210;DHT22;7188;56.070;12.698;2022-11-20T03:51:34;-2.40;1.00
14210;DHT22;7188;56.070;12.698;2022-11-20T03:54:03;-2.40;1.00
14210;DHT22;7188;56.070;12.698;2022-11-20T03:56:31;-2.40;1.00
14210;DHT22;7188;56.070;12.698;2022-11-20T03:58:57;-2.50;5.50
14210;DHT22;7188;56.070;12.698;2022-11-20T04:01:30;-2.40;99.90
14210;DHT22;7188;56.070;12.698;2022-11-20T04:03:56;-2.50;99.90
14210;DHT22;7188;56.070;12.698;2022-11-20T04:06:25;-2.40;99.90
14210;DHT22;7188;56.070;12.698;2022-11-20T04:08:53;-2.40;99.90
14210;DHT22;7188;56.070;12.698;2022-11-20T04:11:21;-2.50;99.90
14210;DHT22;7188;56.070;12.698;2022-11-20T04:13:52;-2.50;99.90
14210;DHT22;7188;56.070;12.698;2022-11-20T04:16:18;-2.50;99.90
14210;DHT22;7188;56.070;12.698;2022-11-20T04:18:44;-2.50;1.00
14210;DHT22;7188;56.070;12.698;2022-11-20T04:21:10;-2.40;1.00
14210;DHT22;7188;56.070;12.698;2022-11-20T04:23:36;-2.50;99.90
14210;DHT22;7188;56.070;12.698;2022-11-20T04:26:07;-2.50;1.00
14210;DHT22;7188;56.070;12.698;2022-11-20T04:28:33;-2.50;1.00
14210;DHT22;7188;56.070;12.698;2022-11-20T04:31:20;-2.50;1.00
14210;DHT22;7188;56.070;12.698;2022-11-20T04:33:46;-2.50;1.00
14210;DHT22;7188;56.070;12.698;2022-11-20T04:36:16;-2.50;1.00
14210;DHT22;7188;56.070;12.698;2022-11-20T04:38:42;-2.60;1.00
14210;DHT22;7188;56.070;12.698;2022-11-20T04:41:13;-2.60;1.00
14210;DHT22;7188;56.070;12.698;2022-11-20T04:43:39;-2.60;1.00
14210;DHT22;7188;56.070;12.698;2022-11-20T04:46:05;-2.60;1.00
14210;DHT22;7188;56.070;12.698;2022-11-20T04:48:30;-2.60;1.00
14210;DHT22;7188;56.070;12.698;2022-11-20T04:50:56;-2.60;1.00
14210;DHT22;7188;56.070;12.698;2022-11-20T04:53:22;-2.60;1.00
14210;DHT22;7188;56.070;12.698;2022-11-20T04:55:48;-2.60;1.00
14210;DHT22;7188;56.070;12.698;2022-11-20T04:58:14;-2.60;7.00
14210;DHT22;7188;56.070;12.698;2022-11-20T05:00:40;-2.60;7.50
14210;DHT22;7188;56.070;12.698;2022-11-20T05:03:06;-2.70;91.30
14210;DHT22;7188;56.070;12.698;2022-11-20T05:05:33;-2.60;99.90
14210;DHT22;7188;56.070;12.698;2022-11-20T05:07:59;-2.70;99.90
14210;DHT22;7188;56.070;12.698;2022-11-20T05:10:26;-2.70;99.90
14210;DHT22;7188;56.070;12.698;2022-11-20T05:12:52;-2.70;99.90
14210;DHT22;7188;56.070;12.698;2022-11-20T05:15:17;-2.70;99.90
14210;DHT22;7188;56.070;12.698;2022-11-20T05:17:50;-2.70;99.90
14210;DHT22;7188;56.070;12.698;2022-11-20T05:20:17;-2.70;99.90
14210;DHT22;7188;56.070;12.698;2022-11-20T05:22:43;-2.70;99.90
14210;DHT22;7188;56.070;12.698;2022-11-20T05:25:08;-2.70;99.90
14210;DHT22;7188;56.070;12.698;2022-11-20T05:27:34;-2.80;99.90
14210;DHT22;7188;56.070;12.698;2022-11-20T05:30:00;-2.80;99.90
14210;DHT22;7188;56.070;12.698;2022-11-20T05:32:25;-2.80;1.00
14210;DHT22;7188;56.070;12.698;2022-11-20T05:34:54;-2.80;1.00
14210;DHT22;7188;56.070;12.698;2022-11-20T05:37:19;-2.80;1.00
14210;DHT22;7188;56.070;12.698;2022-11-20T05:39:45;-2.90;1.00
14210;DHT22;7188;56.070;12.698;2022-11-20T05:42:10;-2.90;1.00
14210;DHT22;7188;56.070;12.698;2022-11-20T05:44:54;-2.90;1.00
14210;DHT22;7188;56.070;12.698;2022-11-20T05:47:20;-2.90;1.00
14210;DHT22;7188;56.070;12.698;2022-11-20T05:50:01;-2.90;1.00
14210;DHT22;7188;56.070;12.698;2022-11-20T05:52:30;-2.90;1.00
14210;DHT22;7188;56.070;12.698;2022-11-20T05:54:56;-2.90;1.00
14210;DHT22;7188;56.070;12.698;2022-11-20T05:57:22;-3.00;1.00
14210;DHT22;7188;56.070;12.698;2022-11-20T05:59:47;-3.00;1.00
14210;DHT22;7188;56.070;12.698;2022-11-20T06:02:13;-3.00;1.00
14210;DHT22;7188;56.070;12.698;2022-11-20T06:04:39;-3.00;1.00
14210;DHT22;7188;56.070;12.698;2022-11-20T06:07:05;-3.00;1.00
14210;DHT22;7188;56.070;12.698;2022-11-20T06:09:31;-3.00;1.00
14210;DHT22;7188;56.070;12.698;2022-11-20T06:11:56;-3.00;1.00
14210;DHT22;7188;56.070;12.698;2022-11-20T06:14:22;-3.00;1.00
14210;DHT22;7188;56.070;12.698;2022-11-20T06:16:47;-3.00;1.00
14210;DHT22;7188;56.070;12.698;2022-11-20T06:19:13;-3.00;1.00
14210;DHT22;7188;56.070;12.698;2022-11-20T06:21:39;-3.10;1.00
14210;DHT22;7188;56.070;12.698;2022-11-20T06:24:05;-3.00;1.00
14210;DHT22;7188;56.070;12.698;2022-11-20T06:26:30;-3.10;1.00
14210;DHT22;7188;56.070;12.698;2022-11-20T06:28:56;-3.10;1.00
14210;DHT22;7188;56.070;12.698;2022-11-20T06:31:23;-3.10;1.00
14210;DHT22;7188;56.070;12.698;2022-11-20T06:33:49;-3.10;8.10
14210;DHT22;7188;56.070;12.698;2022-11-20T06:36:17;-3.10;41.00
14210;DHT22;7188;56.070;12.698;2022-11-20T06:38:43;-3.10;55.60
14210;DHT22;7188;56.070;12.698;2022-11-20T06:41:13;-3.00;91.20
14210;DHT22;7188;56.070;12.698;2022-11-20T06:43:39;-3.00;75.60
14210;DHT22;7188;56.070;12.698;2022-11-20T06:46:05;-3.10;84.30
14210;DHT22;7188;56.070;12.698;2022-11-20T06:48:30;-3.10;99.90
14210;DHT22;7188;56.070;12.698;2022-11-20T06:50:56;-3.00;99.90
14210;DHT22;7188;56.070;12.698;2022-11-20T06:53:23;-3.00;99.90
14210;DHT22;7188;56.070;12.698;2022-11-20T06:55:51;-3.00;99.90
14210;DHT22;7188;56.070;12.698;2022-11-20T06:58:17;-3.00;99.90
14210;DHT22;7188;56.070;12.698;2022-11-20T07:00:43;-3.00;99.90
14210;DHT22;7188;56.070;12.698;2022-11-20T07:03:11;-3.00;99.20
14210;DHT22;7188;56.070;12.698;2022-11-20T07:05:37;-3.00;99.90
14210;DHT22;7188;56.070;12.698;2022-11-20T07:08:04;-3.00;86.70
14210;DHT22;7188;56.070;12.698;2022-11-20T07:10:30;-3.00;95.90
14210;DHT22;7188;56.070;12.698;2022-11-20T07:12:56;-3.00;99.80
14210;DHT22;7188;56.070;12.698;2022-11-20T07:15:23;-3.00;97.20
14210;DHT22;7188;56.070;12.698;2022-11-20T07:17:49;-2.90;99.90
14210;DHT22;7188;56.070;12.698;2022-11-20T07:20:15;-2.90;99.90
14210;DHT22;7188;56.070;12.698;2022-11-20T07:22:41;-2.90;98.20
14210;DHT22;7188;56.070;12.698;2022-11-20T07:25:07;-2.90;82.10
14210;DHT22;7188;56.070;12.698;2022-11-20T07:27:33;-2.80;92.30
14210;DHT22;7188;56.070;12.698;2022-11-20T07:29:59;-2.80;48.50
14210;DHT22;7188;56.070;12.698;2022-11-20T07:32:25;-2.80;54.00
14210;DHT22;7188;56.070;12.698;2022-11-20T07:34:51;-2.80;59.60
14210;DHT22;7188;56.070;12.698;2022-11-20T07:37:18;-2.70;20.20
14210;DHT22;7188;56.070;12.698;2022-11-20T07:39:43;-2.70;1.00
14210;DHT22;7188;56.070;12.698;2022-11-20T07:42:09;-2.60;1.00
14210;DHT22;7188;56.070;12.698;2022-11-20T07:44:35;-2.60;1.00
14210;DHT22;7188;56.070;12.698;2022-11-20T07:47:01;-2.60;1.00
14210;DHT22;7188;56.070;12.698;2022-11-20T07:49:27;-2.60;1.00
14210;DHT22;7188;56.070;12.698;2022-11-20T07:51:53;-2.50;99.90
14210;DHT22;7188;56.070;12.698;2022-11-20T07:54:19;-2.50;99.90
14210;DHT22;7188;56.070;12.698;2022-11-20T07:56:46;-2.50;99.90
14210;DHT22;7188;56.070;12.698;2022-11-20T07:59:11;-2.50;1.00
14210;DHT22;7188;56.070;12.698;2022-11-20T08:01:38;-2.50;1.00
14210;DHT22;7188;56.070;12.698;2022-11-20T08:04:04;-2.50;1.00
14210;DHT22;7188;56.070;12.698;2022-11-20T08:06:30;-2.40;1.00
14210;DHT22;7188;56.070;12.698;2022-11-20T08:09:02;-2.40;99.90
14210;DHT22;7188;56.070;12.698;2022-11-20T08:11:28;-2.40;99.90
14210;DHT22;7188;56.070;12.698;2022-11-20T08:14:12;-2.40;99.90
14210;DHT22;7188;56.070;12.698;2022-11-20T08:16:42;-2.30;21.90
14210;DHT22;7188;56.070;12.698;2022-11-20T08:19:10;-2.30;1.00
14210;DHT22;7188;56.070;12.698;2022-11-20T08:21:36;-2.30;1.00
14210;DHT22;7188;56.070;12.698;2022-11-20T08:24:02;-2.20;1.00
14210;DHT22;7188;56.070;12.698;2022-11-20T08:26:28;-2.20;99.90
14210;DHT22;7188;56.070;12.698;2022-11-20T08:28:55;-2.10;99.90
14210;DHT22;7188;56.070;12.698;2022-11-20T08:31:22;-2.10;99.90
14210;DHT22;7188;56.070;12.698;2022-11-20T08:33:47;-2.00;99.90
14210;DHT22;7188;56.070;12.698;2022-11-20T08:36:13;-1.90;1.00
14210;DHT22;7188;56.070;12.698;2022-11-20T08:38:39;-1.90;1.00
14210;DHT22;7188;56.070;12.698;2022-11-20T08:41:05;-1.80;1.00
14210;DHT22;7188;56.070;12.698;2022-11-20T08:43:53;-1.70;99.90
14210;DHT22;7188;56.070;12.698;2022-11-20T08:46:22;-1.60;99.90
14210;DHT22;7188;56.070;12.698;2022-11-20T08:48:48;-1.60;1.00
14210;DHT22;7188;56.070;12.698;2022-11-20T08:51:14;-1.60;1.00
14210;DHT22;7188;56.070;12.698;2022-11-20T08:53:40;-1.60;1.00
14210;DHT22;7188;56.070;12.698;2022-11-20T08:56:07;-1.60;1.00
14210;DHT22;7188;56.070;12.698;2022-11-20T08:58:33;-1.50;1.00
14210;DHT22;7188;56.070;12.698;2022-11-20T09:00:58;-1.50;1.00
14210;DHT22;7188;56.070;12.698;2022-11-20T09:03:24;-1.50;1.00
14210;DHT22;7188;56.070;12.698;2022-11-20T09:05:59;-1.50;1.00
14210;DHT22;7188;56.070;12.698;2022-11-20T09:08:26;-1.40;1.00
14210;DHT22;7188;56.070;12.698;2022-11-20T09:10:55;-1.50;1.00
14210;DHT22;7188;56.070;12.698;2022-11-20T09:13:22;-1.40;55.90
14210;DHT22;7188;56.070;12.698;2022-11-20T09:15:59;-1.40;28.90
14210;DHT22;7188;56.070;12.698;2022-11-20T09:18:26;-1.40;1.00
14210;DHT22;7188;56.070;12.698;2022-11-20T09:20:56;-1.30;1.00
14210;DHT22;7188;56.070;12.698;2022-11-20T09:23:21;-1.30;1.00
14210;DHT22;7188;56.070;12.698;2022-11-20T09:25:47;-1.30;1.00
14210;DHT22;7188;56.070;12.698;2022-11-20T09:28:13;-1.30;1.00
14210;DHT22;7188;56.070;12.698;2022-11-20T09:30:38;-1.30;1.00
14210;DHT22;7188;56.070;12.698;2022-11-20T09:33:05;-1.20;1.00
14210;DHT22;7188;56.070;12.698;2022-11-20T09:35:31;-1.20;1.00
14210;DHT22;7188;56.070;12.698;2022-11-20T09:37:57;-1.20;1.00
14210;DHT22;7188;56.070;12.698;2022-11-20T09:40:26;-1.10;1.00
14210;DHT22;7188;56.070;12.698;2022-11-20T09:43:22;-1.10;99.90
14210;DHT22;7188;56.070;12.698;2022-11-20T09:48:48;-1.00;99.90
14210;DHT22;7188;56.070;12.698;2022-11-20T09:56:24;-0.90;64.20
14210;DHT22;7188;56.070;12.698;2022-11-20T09:58:52;-0.80;9.20
14210;DHT22;7188;56.070;12.698;2022-11-20T10:01:26;-0.80;1.00
14210;DHT22;7188;56.070;12.698;2022-11-20T10:06:34;-0.70;1.00
14210;DHT22;7188;56.070;12.698;2022-11-20T10:20:18;-0.60;1.00
14210;DHT22;7188;56.070;12.698;2022-11-20T10:31:14;-0.50;1.00
14210;DHT22;7188;56.070;12.698;2022-11-20T10:33:45;-0.50;1.00
14210;DHT22;7188;56.070;12.698;2022-11-20T10:49:32;-0.10;99.90
14210;DHT22;7188;56.070;12.698;2022-11-20T11:00:10;-0.20;59.60
14210;DHT22;7188;56.070;12.698;2022-11-20T11:02:48;-0.20;42.70
14210;DHT22;7188;56.070;12.698;2022-11-20T11:07:46;0.00;42.00
14210;DHT22;7188;56.070;12.698;2022-11-20T11:10:26;0.00;1.00
14210;DHT22;7188;56.070;12.698;2022-11-20T11:12:54;0.00;13.40
14210;DHT22;7188;56.070;12.698;2022-11-20T11:15:28;0.10;1.00
14210;DHT22;7188;56.070;12.698;2022-11-20T11:17:55;0.20;1.00
14210;DHT22;7188;56.070;12.698;2022-11-20T11:20:23;0.20;99.90
14210;DHT22;7188;56.070;12.698;2022-11-20T11:22:53;0.20;99.90
14210;DHT22;7188;56.070;12.698;2022-11-20T11:27:59;0.40;1.00
14210;DHT22;7188;56.070;12.698;2022-11-20T11:30:27;0.40;1.00
14210;DHT22;7188;56.070;12.698;2022-11-20T11:33:04;0.40;1.00
14210;DHT22;7188;56.070;12.698;2022-11-20T11:35:31;0.50;1.00
14210;DHT22;7188;56.070;12.698;2022-11-20T11:38:11;0.50;1.00
14210;DHT22;7188;56.070;12.698;2022-11-20T11:40:39;0.60;1.00
14210;DHT22;7188;56.070;12.698;2022-11-20T11:43:15;0.60;1.00
14210;DHT22;7188;56.070;12.698;2022-11-20T11:46:01;0.60;99.90
14210;DHT22;7188;56.070;12.698;2022-11-20T11:48:27;0.70;99.90
14210;DHT22;7188;56.070;12.698;2022-11-20T11:50:53;0.80;99.90
14210;DHT22;7188;56.070;12.698;2022-11-20T11:53:23;0.80;99.90
14210;DHT22;7188;56.070;12.698;2022-11-20T11:55:56;0.90;99.90
14210;DHT22;7188;56.070;12.698;2022-11-20T12:04:19;0.90;1.00
14210;DHT22;7188;56.070;12.698;2022-11-20T12:07:11;0.90;1.00
14210;DHT22;7188;56.070;12.698;2022-11-20T12:09:45;1.10;1.00
14210;DHT22;7188;56.070;12.698;2022-11-20T12:12:19;1.00;1.00
14210;DHT22;7188;56.070;12.698;2022-11-20T12:14:49;1.00;1.00
14210;DHT22;7188;56.070;12.698;2022-11-20T12:17:18;1.10;1.00
14210;DHT22;7188;56.070;12.698;2022-11-20T12:19:44;1.10;1.00
14210;DHT22;7188;56.070;12.698;2022-11-20T12:25:10;1.10;1.00
14210;DHT22;7188;56.070;12.698;2022-11-20T12:30:22;1.10;1.00
14210;DHT22;7188;56.070;12.698;2022-11-20T12:33:14;1.10;1.00
14210;DHT22;7188;56.070;12.698;2022-11-20T12:39:10;1.20;1.00
14210;DHT22;7188;56.070;12.698;2022-11-20T12:41:48;1.10;1.00
14210;DHT22;7188;56.070;12.698;2022-11-20T13:02:01;1.10;99.90
14210;DHT22;7188;56.070;12.698;2022-11-20T13:05:18;1.10;99.90
14210;DHT22;7188;56.070;12.698;2022-11-20T13:07:35;1.10;99.90
14210;DHT22;7188;56.070;12.698;2022-11-20T13:10:02;1.10;99.90
14210;DHT22;7188;56.070;12.698;2022-11-20T13:12:36;1.10;99.90
14210;DHT22;7188;56.070;12.698;2022-11-20T13:15:17;1.10;99.90
14210;DHT22;7188;56.070;12.698;2022-11-20T13:18:00;1.10;99.90
14210;DHT22;7188;56.070;12.698;2022-11-20T13:20:27;1.20;99.90
14210;DHT22;7188;56.070;12.698;2022-11-20T13:22:54;1.20;99.90
14210;DHT22;7188;56.070;12.698;2022-11-20T13:25:25;1.20;99.90
14210;DHT22;7188;56.070;12.698;2022-11-20T13:27:51;1.30;99.90
14210;DHT22;7188;56.070;12.698;2022-11-20T13:30:20;1.30;99.90
14210;DHT22;7188;56.070;12.698;2022-11-20T13:33:09;1.40;99.90
14210;DHT22;7188;56.070;12.698;2022-11-20T13:35:56;1.40;99.90
14210;DHT22;7188;56.070;12.698;2022-11-20T13:38:23;1.40;99.90
14210;DHT22;7188;56.070;12.698;2022-11-20T13:43:39;1.40;99.90
14210;DHT22;7188;56.070;12.698;2022-11-20T13:46:07;1.30;99.90
14210;DHT22;7188;56.070;12.698;2022-11-20T13:48:44;1.20;99.90
14210;DHT22;7188;56.070;12.698;2022-11-20T13:51:41;1.20;99.90
14210;DHT22;7188;56.070;12.698;2022-11-20T14:02:14;1.10;99.90
14210;DHT22;7188;56.070;12.698;2022-11-20T14:04:47;1.10;99.90
14210;DHT22;7188;56.070;12.698;2022-11-20T14:07:14;1.20;99.90
14210;DHT22;7188;56.070;12.698;2022-11-20T14:09:55;1.20;99.90
14210;DHT22;7188;56.070;12.698;2022-11-20T14:12:32;1.10;99.90
14210;DHT22;7188;56.070;12.698;2022-11-20T14:14:59;1.10;99.90
14210;DHT22;7188;56.070;12.698;2022-11-20T14:17:34;1.10;99.90
14210;DHT22;7188;56.070;12.698;2022-11-20T14:20:03;1.10;99.90
14210;DHT22;7188;56.070;12.698;2022-11-20T14:22:30;1.00;99.90
14210;DHT22;7188;56.070;12.698;2022-11-20T14:27:44;1.00;99.90
14210;DHT22;7188;56.070;12.698;2022-11-20T14:30:24;1.00;99.90
14210;DHT22;7188;56.070;12.698;2022-11-20T14:32:51;0.90;99.90
14210;DHT22;7188;56.070;12.698;2022-11-20T14:35:28;0.80;99.90
14210;DHT22;7188;56.070;12.698;2022-11-20T14:37:55;0.80;99.90
14210;DHT22;7188;56.070;12.698;2022-11-20T14:40:29;0.80;99.90
14210;DHT22;7188;56.070;12.698;2022-11-20T14:42:56;0.80;99.90
14210;DHT22;7188;56.070;12.698;2022-11-20T14:45:22;0.70;1.00
14210;DHT22;7188;56.070;12.698;2022-11-20T14:47:49;0.60;1.00
14210;DHT22;7188;56.070;12.698;2022-11-20T14:50:26;0.60;1.00
14210;DHT22;7188;56.070;12.698;2022-11-20T14:52:57;0.50;1.00
14210;DHT22;7188;56.070;12.698;2022-11-20T14:55:36;0.50;1.00
14210;DHT22;7188;56.070;12.698;2022-11-20T14:58:19;0.40;1.00
14210;DHT22;7188;56.070;12.698;2022-11-20T15:00:56;0.40;1.00
14210;DHT22;7188;56.070;12.698;2022-11-20T15:03:22;0.30;1.00
14210;DHT22;7188;56.070;12.698;2022-11-20T15:05:49;0.20;1.00
14210;DHT22;7188;56.070;12.698;2022-11-20T15:08:16;0.20;1.00
14210;DHT22;7188;56.070;12.698;2022-11-20T15:10:49;0.10;1.00
14210;DHT22;7188;56.070;12.698;2022-11-20T15:13:31;0.10;1.00
14210;DHT22;7188;56.070;12.698;2022-11-20T15:16:00;0.00;18.30
14210;DHT22;7188;56.070;12.698;2022-11-20T15:18:32;-0.10;43.70
14210;DHT22;7188;56.070;12.698;2022-11-20T15:21:06;-0.10;1.00
14210;DHT22;7188;56.070;12.698;2022-11-20T15:23:35;-0.20;37.80
14210;DHT22;7188;56.070;12.698;2022-11-20T15:26:00;-0.20;29.90
14210;DHT22;7188;56.070;12.698;2022-11-20T15:28:30;-0.30;75.00
14210;DHT22;7188;56.070;12.698;2022-11-20T15:30:56;-0.30;92.20
14210;DHT22;7188;56.070;12.698;2022-11-20T15:33:22;-0.40;99.90
14210;DHT22;7188;56.070;12.698;2022-11-20T15:35:48;-0.50;99.90
14210;DHT22;7188;56.070;12.698;2022-11-20T15:38:14;-0.50;99.90
14210;DHT22;7188;56.070;12.698;2022-11-20T15:40:39;-0.50;99.90
14210;DHT22;7188;56.070;12.698;2022-11-20T15:43:05;-0.60;99.90
14210;DHT22;7188;56.070;12.698;2022-11-20T15:45:43;-0.70;99.90
14210;DHT22;7188;56.070;12.698;2022-11-20T15:48:21;-0.70;99.90
14210;DHT22;7188;56.070;12.698;2022-11-20T15:53:20;-0.70;1.00
14210;DHT22;7188;56.070;12.698;2022-11-20T15:55:45;-0.80;1.00
14210;DHT22;7188;56.070;12.698;2022-11-20T15:58:23;-0.80;1.00
14210;DHT22;7188;56.070;12.698;2022-11-20T16:00:50;-0.90;1.00
14210;DHT22;7188;56.070;12.698;2022-11-20T16:03:17;-1.00;1.00
14210;DHT22;7188;56.070;12.698;2022-11-20T16:05:43;-1.00;1.00
14210;DHT22;7188;56.070;12.698;2022-11-20T16:08:09;-1.10;1.00
14210;DHT22;7188;56.070;12.698;2022-11-20T16:10:35;-1.20;1.00
14210;DHT22;7188;56.070;12.698;2022-11-20T16:13:01;-1.30;1.00
14210;DHT22;7188;56.070;12.698;2022-11-20T16:15:50;-1.20;1.00
14210;DHT22;7188;56.070;12.698;2022-11-20T16:18:19;-1.20;1.00
14210;DHT22;7188;56.070;12.698;2022-11-20T16:20:47;-1.30;1.00
14210;DHT22;7188;56.070;12.698;2022-11-20T16:23:13;-1.40;1.00
14210;DHT22;7188;56.070;12.698;2022-11-20T16:25:39;-1.40;99.90
14210;DHT22;7188;56.070;12.698;2022-11-20T16:28:05;-1.50;99.90
14210;DHT22;7188;56.070;12.698;2022-11-20T16:30:32;-1.50;99.90
14210;DHT22;7188;56.070;12.698;2022-11-20T16:32:58;-1.60;99.90
14210;DHT22;7188;56.070;12.698;2022-11-20T16:35:26;-1.70;99.90
14210;DHT22;7188;56.070;12.698;2022-11-20T16:37:53;-1.80;99.90
14210;DHT22;7188;56.070;12.698;2022-11-20T16:40:18;-1.80;99.90
14210;DHT22;7188;56.070;12.698;2022-11-20T16:42:44;-1.90;99.90
14210;DHT22;7188;56.070;12.698;2022-11-20T16:45:10;-1.90;99.90
14210;DHT22;7188;56.070;12.698;2022-11-20T16:47:35;-2.00;99.90
14210;DHT22;7188;56.070;12.698;2022-11-20T16:50:02;-2.10;99.90
14210;DHT22;7188;56.070;12.698;2022-11-20T16:52:29;-2.20;99.90
14210;DHT22;7188;56.070;12.698;2022-11-20T16:54:55;-2.30;1.00
14210;DHT22;7188;56.070;12.698;2022-11-20T16:57:21;-2.30;1.00
14210;DHT22;7188;56.070;12.698;2022-11-20T16:59:47;-2.30;1.00
14210;DHT22;7188;56.070;12.698;2022-11-20T17:02:13;-2.30;99.90
14210;DHT22;7188;56.070;12.698;2022-11-20T17:04:39;-2.30;99.90
14210;DHT22;7188;56.070;12.698;2022-11-20T17:07:06;-2.30;99.90
14210;DHT22;7188;56.070;12.698;2022-11-20T17:09:32;-2.30;99.90
14210;DHT22;7188;56.070;12.698;2022-11-20T17:11:57;-2.40;1.00
14210;DHT22;7188;56.070;12.698;2022-11-20T17:14:23;-2.40;1.00
14210;DHT22;7188;56.070;12.698;2022-11-20T17:16:49;-2.40;1.00
14210;DHT22;7188;56.070;12.698;2022-11-20T17:19:14;-2.40;1.00
14210;DHT22;7188;56.070;12.698;2022-11-20T17:21:40;-2.30;1.00
14210;DHT22;7188;56.070;12.698;2022-11-20T17:24:11;-2.30;1.00
14210;DHT22;7188;56.070;12.698;2022-11-20T17:26:39;-2.30;1.00
14210;DHT22;7188;56.070;12.698;2022-11-20T17:29:07;-2.30;1.00
14210;DHT22;7188;56.070;12.698;2022-11-20T17:31:35;-2.30;1.00
14210;DHT22;7188;56.070;12.698;2022-11-20T17:34:03;-2.30;1.00
14210;DHT22;7188;56.070;12.698;2022-11-20T17:36:30;-2.30;99.90
14210;DHT22;7188;56.070;12.698;2022-11-20T17:38:56;-2.40;1.00
14210;DHT22;7188;56.070;12.698;2022-11-20T17:41:23;-2.50;1.00
14210;DHT22;7188;56.070;12.698;2022-11-20T17:43:55;-2.50;99.90